Flight Track Log - Related Links

Times and Time Zones

All times are in EDT time to prevent confusion due to time zone crossing. See the BJS262 flight status page for this flight to view local times or setup timezone preferences in your user account.

Time Position Orientation Groundspeed Altitude Reporting Facility
EDT Latitude Longitude Course Direction KTS MPH feet Rate Location/Type
Thu 05:29:52 PM 41.8058 -87.7711 84° East 174 200 2,700  Level Chicago Center
Thu 05:34:58 PM 41.7760 -87.2470 84° East 100 115 16,600 2,798 Climbing FlightAware ADS-B
Thu 05:35:00 PM 41.8968 -86.1448 84° East  Level Estimated
Thu 05:35:18 PM 41.7730 -87.2090 96° East 352 405 17,900  Level FlightAware ADS-B
Thu 05:35:53 PM 41.7670 -87.1240 95° East 376 433 20,200 2,775 Climbing FlightAware ADS-B
Thu 05:36:38 PM 41.7630 -87.0040 93° East 439 505 21,600 1,364 Climbing FlightAware ADS-B
Thu 05:37:21 PM 41.7630 -86.9040 90° East 439 505 22,200 450 Climbing FlightAware ADS-B
Thu 05:37:58 PM 41.7610 -86.8180 92° East 439 505 22,200 4,138 Level FlightAware ADS-B
Thu 05:38:48 PM 41.7730 -86.6490 85° East 487 560 28,200 5,365 Climbing FlightAware ADS-B
Thu 05:39:23 PM 41.7680 -86.5260 93° East 482 555 29,800 2,100 Climbing FlightAware ADS-B
Thu 05:40:08 PM 41.7690 -86.3840 89° East 517 595 31,000 1,745 Climbing FlightAware ADS-B
Thu 05:40:18 PM 41.7700 -86.3560 87° East 509 586 31,400  Climbing FlightAware ADS-B
Thu 05:40:58 PM 41.7850 -86.2260 81° East 475 547 31,000 2,400 Descending FlightAware ADS-B
Thu 05:41:23 PM 41.7980 -86.1500 77° East 505 581 34,000 3,709 Climbing FlightAware ADS-B
Thu 05:41:53 PM 41.8120 -86.0560 79° East 507 583 34,400 -4,000 Climbing FlightAware ADS-B
Thu 05:42:08 PM 41.8200 -86.0140 76° East 512 589 31,000 1,882 Descending FlightAware ADS-B
Thu 05:42:44 PM 41.8390 -85.9100 76° East 515 593 36,000 4,560 Climbing FlightAware ADS-B
Thu 05:43:23 PM 41.8590 -85.7860 78° East 508 585 36,700 1,391 Climbing FlightAware ADS-B
Thu 05:43:53 PM 41.8740 -85.6920 78° East 529 609 37,600 1,543 Climbing FlightAware ADS-B
Thu 05:43:58 PM 41.8780 -85.6700 76° East 529 609 37,600  Level FlightAware ADS-B
Thu 05:44:08 PM 41.8830 -85.6390 78° East 511 588 37,600  Level FlightAware ADS-B
Thu 05:44:18 PM 41.8880 -85.6160 74° East 511 588 37,600  Level FlightAware ADS-B
Thu 05:44:55 PM 41.8920 -85.5160 87° East 511 588 37,600  Level FlightAware ADS-B
Thu 05:45:31 PM 41.8960 -85.4190 87° East 511 588 37,600  Level FlightAware ADS-B
Thu 05:46:08 PM 41.9000 -85.3200 87° East 511 588 37,600  Level FlightAware ADS-B
Thu 05:46:44 PM 41.9030 -85.2230 88° East 511 588 37,600  Level FlightAware ADS-B
Thu 05:47:20 PM 41.9070 -85.1260 87° East 511 588 37,600  Level FlightAware ADS-B
Thu 05:47:56 PM 41.9110 -85.0280 87° East 511 588 37,600  Level FlightAware ADS-B
Thu 05:48:32 PM 41.9150 -84.9310 87° East 511 588 37,600  Level FlightAware ADS-B
Thu 05:49:08 PM 41.9180 -84.8340 88° East 511 588 37,600 2,833 Level FlightAware ADS-B
Thu 05:49:44 PM 41.9550 -84.5950 78° East 511 588 41,000 2,914 Climbing FlightAware ADS-B
Thu 05:50:18 PM 41.9470 -84.4940 96° East 496 571 41,000  Level FlightAware ADS-B
Thu 05:50:56 PM 41.9470 -84.3940 90° East 496 571 41,000  Level FlightAware ADS-B
Thu 05:51:32 PM 41.9470 -84.3000 90° East 496 571 41,000  Level FlightAware ADS-B
Thu 05:52:08 PM 41.9470 -84.2050 90° East 496 571 41,000  Level FlightAware ADS-B
Thu 05:52:46 PM 41.9470 -84.1060 90° East 496 571 41,000  Level FlightAware ADS-B
Thu 05:53:23 PM 41.9470 -84.0080 90° East 496 571 41,000  Level FlightAware ADS-B
Thu 05:53:59 PM 41.9470 -83.9140 90° East 496 571 41,000  Level FlightAware ADS-B
Thu 05:54:35 PM 41.9470 -83.8200 90° East 496 571 41,000  Level FlightAware ADS-B
Thu 05:55:21 PM 41.9470 -83.6990 90° East 496 571 41,000  Level FlightAware ADS-B
Thu 05:55:57 PM 41.9470 -83.6050 90° East 496 571 41,000  Level FlightAware ADS-B
Thu 05:56:33 PM 41.9470 -83.5100 90° East 496 571 41,000  Level FlightAware ADS-B
Thu 05:57:09 PM 41.9470 -83.4160 90° East 496 571 41,000  Level FlightAware ADS-B
Thu 05:57:45 PM 41.9470 -83.3210 90° East 496 571 41,000  Level FlightAware ADS-B
Thu 05:58:21 PM 41.9470 -83.2270 90° East 496 571 41,000  Level FlightAware ADS-B
Thu 05:58:58 PM 41.9470 -83.1300 90° East 496 571 41,000  Level FlightAware ADS-B
Thu 05:59:35 PM 41.9470 -83.0330 90° East 496 571 41,000  Level FlightAware ADS-B
Thu 06:00:11 PM 41.9470 -82.9380 90° East 496 571 41,000  Level FlightAware ADS-B
Thu 06:01:26 PM 42.1472 -82.3669 90° East 514 592 41,000  Level Cleveland Center
Thu 06:02:28 PM 42.1633 -82.1753 83° East 517 595 41,000  Level Cleveland Center
Thu 06:03:30 PM 42.1814 -81.9689 83° East 514 592 41,000  Level Cleveland Center
Thu 06:04:32 PM 42.1981 -81.7744 83° East 515 593 41,000  Level Cleveland Center
Thu 06:05:34 PM 42.2183 -81.5475 83° East 516 594 41,000  Level Cleveland Center
Thu 06:06:36 PM 42.2336 -81.3542 84° East 514 592 41,000  Level Cleveland Center
Thu 06:07:38 PM 42.2506 -81.1594 83° East 516 594 41,000  Level Cleveland Center
Thu 06:08:40 PM 42.2658 -80.9636 84° East 518 596 41,000  Level Cleveland Center
Thu 06:09:42 PM 42.2814 -80.7692 84° East 518 596 41,000  Level Cleveland Center
Thu 06:10:44 PM 42.2978 -80.5750 83° East 514 592 41,000  Level Cleveland Center
Thu 06:11:46 PM 42.3117 -80.3800 84° East 517 595 41,000  Level Cleveland Center
Thu 06:12:48 PM 42.3272 -80.1819 84° East 520 598 41,000  Level Cleveland Center
Thu 06:13:51 PM 42.3433 -79.9514 85° East 524 603 41,000  Level Cleveland Center
Thu 06:14:53 PM 42.3578 -79.7531 84° East 524 603 41,000  Level Cleveland Center
Thu 06:15:55 PM 42.3703 -79.5575 85° East 525 604 41,000 -48 Level Cleveland Center
Thu 06:16:57 PM 42.3836 -79.3600 85° East 528 608 40,900  Descending Cleveland Center
Thu 06:17:59 PM 42.3967 -79.1628 85° East 529 609 41,000 48 Climbing Cleveland Center
Thu 06:19:01 PM 42.4097 -78.9700 85° East 520 598 41,000 -145 Level Cleveland Center
Thu 06:20:03 PM 42.4233 -78.7533 85° East 514 592 40,700 -629 Descending Cleveland Center
Thu 06:21:05 PM 42.4336 -78.5547 86° East 523 602 39,700 -823 Descending Cleveland Center
Thu 06:22:07 PM 42.4456 -78.3542 85° East 534 615 39,000 -339 Descending Cleveland Center
Thu 06:23:09 PM 42.4569 -78.1542 86° East 535 616 39,000  Level Cleveland Center
Thu 06:24:11 PM 42.4697 -77.9178 86° East 532 612 39,000  Level Cleveland Center
Thu 06:25:13 PM 42.4792 -77.7183 86° East 529 609 39,000 -48 Level Cleveland Center
Thu 06:26:15 PM 42.4906 -77.5189 86° East 534 615 38,900  Descending Cleveland Center
Thu 06:27:17 PM 42.4992 -77.3308 86° East 536 617 39,000 48 Climbing Cleveland Center
Thu 06:28:20 PM 42.5103 -77.0947 86° East 530 610 39,000 -336 Level Cleveland Center
Thu 06:29:22 PM 42.5336 -76.9006 81° East 537 618 38,300 -981 Descending Cleveland Center
Thu 06:30:04 PM 42.5594 -76.7789 74° East 539 620 37,300 -1,800 Descending Boston Center
Thu 06:31:02 PM 42.5981 -76.5756 75° East 549 632 35,300 -2,034 Descending Boston Center
Thu 06:32:02 PM 42.6306 -76.3717 78° East 555 639 33,300 -1,190 Descending Boston Center
Thu 06:33:03 PM 42.6019 -76.1694 101° East 510 587 32,900 -397 Descending Boston Center
Thu 06:34:03 PM 42.5744 -75.9844 101° East 505 581 32,500 -992 Descending Boston Center
Thu 06:35:04 PM 42.5447 -75.7939 102° East 505 581 30,900 -1,613 Descending Boston Center
Thu 06:36:02 PM 42.5169 -75.6008 101° East 510 587 29,300 -1,627 Descending Boston Center
Thu 06:37:02 PM 42.4922 -75.4306 101° East 511 588 27,700 -1,587 Descending Boston Center
Thu 06:38:03 PM 42.4678 -75.2464 100° East 505 581 26,100 -1,587 Descending Boston Center
Thu 06:39:03 PM 42.4703 -75.0550 89° East 505 581 24,500 -1,587 Descending Boston Center
Thu 06:40:04 PM 42.4744 -74.8639 88° East 505 581 22,900 -1,613 Descending Boston Center
Thu 06:41:02 PM 42.4783 -74.6781 88° East 494 568 21,300 -1,613 Descending Boston Center
Thu 06:42:03 PM 42.4817 -74.5036 88° East 482 555 19,700 -1,686 Descending Boston Center
Thu 06:43:03 PM 42.4831 -74.3067 89° East 473 544 17,900 -1,600 Descending Boston Center
Thu 06:44:03 PM 42.4775 -74.1347 92° East 462 532 16,500 -1,388 Descending Boston Center
Thu 06:45:04 PM 42.4442 -73.9764 106° East 441 507 15,100 -807 Descending Boston Center
Thu 06:46:02 PM 42.4128 -73.8153 105° East 434 499 14,900 -605 Descending Boston Center
Thu 06:47:03 PM 42.3814 -73.6600 105° East 434 499 13,900 -923 Descending Boston Center
Thu 06:47:33 PM 42.3675 -73.5867 104° East 422 486 13,500 -917 Descending Boston Center
Thu 06:48:15 PM 42.3456 -73.4822 106° East 410 472 12,800 -923 Descending Boston Center
Thu 06:49:04 PM 42.3217 -73.3611 105° East 405 466 12,100 -936 Descending Boston Center
Thu 06:50:04 PM 42.2956 -73.2203 104° East 405 466 11,100 -1,214 Descending Boston Center
Thu 06:50:28 PM 42.2833 -73.1669 107° East 366 421 10,400 -1,765 Descending Boston Center
Thu 06:51:29 PM 42.2611 -73.0517 105° East 301 346 8,600 -1,722 Descending Boston Center
Thu 06:52:23 PM 42.2431 -72.9561 104° East 288 331 7,100 -793 Descending Boston Center
Thu 06:53:30 PM 42.2206 -72.8408 105° East 283 326 7,000  Descending Boston Center
Thu 06:54:24 PM 42.2000 -72.7483 107° East 288 331 7,100 -365 Climbing Boston Center
Thu 06:55:25 PM 42.1753 -72.6389 107° East 292 336 6,300 -1,377 Descending Boston Center
Thu 06:56:26 PM 42.1253 -72.5606 131° Southeast 265 305 4,300 -1,930 Descending Boston Center
Thu 06:57:20 PM 42.0647 -72.5519 174° South 255 293 2,600 -1,091 Descending Boston Center
Thu 06:58:27 PM 42.0086 -72.5939 209° Southwest 182 209 2,100 -677 Descending Boston Center
Thu 06:59:24 PM 41.9814 -72.6272 222° Southwest 143 165 1,200 -872 Descending Boston Center
Thu 07:00:24 PM 41.9522 -72.6661 225° Southwest 135 155 400 -800 Descending Boston Center

Login

Don't have an account? Register now (free) for customized features, flight alerts, and more!